Currently 66°F in Temecula, California, USA
66°F
70°F / 66°F
calm
0.00"
Thursday, July 20, 2017 5:31 AM PDT

Temecula, California Weather Summary
Last 36 Hours

Temperature Winds Hourly Humidity Dewpoint
Time Report Norm Report Norm Max Gusts Precip. Rpt. Norm Rpt. Norm Pressure
1Thu 05:31 AM  65.9°F  64°F  calm  calm  none  0.00"  89%  87%  62°F  59°F  30.06"
3Thu 05:29 AM  65.9°F  64°F  calm  calm  none  ----  89%  87%  62°F  59°F  30.07"
Thu 05:00 AM  66.1°F  64°F  calm  calm  none  0.00"  89%  86%  62°F  60°F  30.06"
Thu 04:00 AM  66.4°F  64°F  calm  calm  none  0.00"  87%  85%  62°F  60°F  30.05"
Thu 03:00 AM  67.2°F  65°F  calm  calm  none  0.00"  88%  84%  63°F  60°F  30.06"
Thu 02:00 AM  68.1°F  66°F  calm  1 mph  3 mph  0.00"  87%  83%  64°F  60°F  30.06"
Thu 01:00 AM  69.1°F  67°F  1 mph SE  1 mph  4 mph  0.00"  85%  81%  64°F  61°F  30.06"
2Thu 12:00 AM  69.9°F  68°F  2 mph SE  1 mph  4 mph  0.00"  83%  79%  64°F  61°F  30.06"
Wed 11:00 PM  71.1°F  69°F  calm  1 mph  6 mph  0.00"  80%  76%  64°F  61°F  30.07"
Wed 10:00 PM  72.3°F  71°F  4 mph S  2 mph  7 mph  0.00"  76%  71%  64°F  61°F  30.07"
Wed 09:00 PM  73.9°F  73°F  3 mph SW  3 mph  10 mph  0.00"  71%  66%  64°F  60°F  30.03"
Wed 08:00 PM  77.0°F  76°F  2 mph SW  4 mph  12 mph  0.00"  66%  58%  65°F  60°F  30.00"
Wed 07:00 PM  80.2°F  80°F  5 mph SW  6 mph  13 mph  0.00"  60%  51%  65°F  59°F  29.98"
Wed 06:00 PM  85.1°F  84°F  5 mph SW  8 mph  15 mph  0.00"  52%  44%  65°F  59°F  29.94"
Wed 05:00 PM  87.3°F  87°F  9 mph SW  9 mph  14 mph  0.00"  49%  40%  65°F  59°F  29.94"
Wed 04:00 PM  91.6°F  88°F  7 mph SW  10 mph  12 mph  0.00"  43%  37%  65°F  58°F  29.95"
Wed 03:00 PM  91.0°F  89°F  2 mph SW  10 mph  11 mph  0.00"  43%  36%  65°F  58°F  29.98"
Wed 02:00 PM  87.2°F  89°F  4 mph SW  9 mph  9 mph  0.00"  47%  36%  64°F  58°F  30.02"
Wed 01:00 PM  84.0°F  88°F  3 mph NW  8 mph  8 mph  0.00"  55%  38%  65°F  59°F  30.04"
Wed 12:00 PM  80.5°F  86°F  3 mph S  7 mph  9 mph  0.00"  66%  42%  68°F  59°F  30.05"
Wed 11:00 AM  76.5°F  82°F  1 mph SW  4 mph  8 mph  0.00"  68%  49%  65°F  61°F  30.06"
Wed 10:00 AM  69.3°F  76°F  2 mph W  2 mph  11 mph  0.01"  94%  61%  68°F  61°F  30.07"
Wed 09:00 AM  68.1°F  71°F  5 mph S  1 mph  11 mph  0.00"  95%  74%  67°F  61°F  30.06"
Wed 08:00 AM  68.7°F  66°F  1 mph SW  1 mph  3 mph  0.01"  93%  83%  67°F  61°F  30.07"
Wed 07:00 AM  70.0°F  64°F  calm  calm  3 mph  0.02"  87%  87%  66°F  60°F  30.04"
Wed 06:00 AM  71.4°F  63°F  calm  calm  2 mph  0.00"  74%  87%  63°F  59°F  30.03"
Wed 05:00 AM  71.2°F  64°F  calm  calm  none  0.00"  72%  86%  61°F  59°F  30.02"
Wed 04:00 AM  70.8°F  64°F  calm  calm  none  0.00"  72%  85%  61°F  60°F  30.02"
Wed 03:00 AM  71.3°F  65°F  calm  calm  3 mph  0.00"  74%  84%  62°F  60°F  30.03"
Wed 02:00 AM  71.5°F  66°F  calm  1 mph  5 mph  0.00"  73%  83%  62°F  60°F  30.02"
Wed 01:00 AM  71.6°F  67°F  calm  1 mph  4 mph  0.00"  71%  81%  61°F  60°F  30.03"
Wed 12:00 AM  72.0°F  68°F  2 mph SW  1 mph  5 mph  0.00"  71%  79%  62°F  61°F  30.03"
Tue 11:00 PM  72.4°F  69°F  3 mph S  1 mph  7 mph  0.00"  67%  76%  61°F  61°F  30.03"
Tue 10:00 PM  73.2°F  71°F  calm  2 mph  5 mph  0.00"  64%  71%  60°F  60°F  30.03"
Tue 09:00 PM  75.0°F  73°F  4 mph SW  3 mph  9 mph  0.00"  59%  65%  59°F  60°F  30.00"
Tue 08:00 PM  75.9°F  76°F  5 mph S  4 mph  16 mph  0.00"  58%  57%  59°F  59°F  29.98"
Tue 07:00 PM  77.8°F  80°F  5 mph SW  6 mph  18 mph  0.00"  56%  50%  60°F  59°F  29.98"
Tue 06:00 PM  80.8°F  84°F  5 mph SW  8 mph  17 mph  0.00"  49%  44%  59°F  59°F  29.96"

  1. Current weather data. No green row appears if the current weather data is also the high or low for the current day.
  2. High temperature for the current day.
  3. Low temperature for the current day.

The Temecula weather pages are a service of WeatherCurrents. Temecula, California is located in the Temecula Valley, in southwestern Riverside County, along the Interstate 15 highway. The Temecula Valley's rolling hills are home to the Temecula wine country, vineyards, golf courses, a casino resort, and Old Town Temecula.
Copyright ©Thu Jul 20 05:32:02 PDT 2017  WeatherCurrents. All rights reserved. - Submit questions and comments - Privacy Policy

This page automatically refreshes every 10 minutes.